^^
Grace C. Lehan Memorial Weather Station Historical Data
Daily Summary for January 14, 2021 Units:  English    Metric   Both
Daily Weekly Monthly Yearly
  High: Low: Average:
Temperature: 52.3 °F 36.6 °F 44.5 °F
Dew Point: 39.5 °F 33.2 °F 36.3 °F
Humidity: 89% 53.4% 74%
Wind Speed: 3.7mph 0mph 0.6mph
Wind Gust: 15mph - -
Wind- - WSW
Pressure: 29.89 in 29.76 in -
Precipitation: 0.02 in    
 
 
Tabular Data for January 14, 2021
Time Temperature Dew Point Pressure Wind Wind Speed Wind Gust Humidity Rainfall Rate (Hourly) solar
00:04 38.2 °F 35.3 °F 29.77 in WSW 0.8 mph 6 mph 89% 0.00 in 0 W/m2
00:09 38.2 °F 35.3 °F 29.77 in Calm   6 mph 89% 0.00 in 0 W/m2
00:14 38.2 °F 35.2 °F 29.77 in WSW 0.4 mph 6 mph 89% 0.00 in 0 W/m2
00:19 38.1 °F 35.2 °F 29.77 in WSW 0.3 mph 6 mph 89% 0.00 in 0 W/m2
00:24 38.1 °F 35.1 °F 29.77 in WSW 0.4 mph 6 mph 89% 0.00 in 0 W/m2
00:29 38 °F 34.9 °F 29.77 in SW 1.5 mph 10 mph 88.5% 0.00 in 0 W/m2
00:34 38 °F 34.8 °F 29.78 in WSW 3.7 mph 10 mph 88% 0.00 in 0 W/m2
00:39 38 °F 34.8 °F 29.78 in WSW 2.5 mph 9 mph 88% 0.00 in 0 W/m2
00:44 38.1 °F 34.9 °F 29.78 in WSW 2.8 mph 10 mph 88% 0.00 in 0 W/m2
00:49 38.2 °F 34.8 °F 29.78 in SW 1.3 mph 10 mph 87.5% 0.00 in 0 W/m2
00:54 38.3 °F 34.8 °F 29.77 in SW 3 mph 15 mph 87% 0.00 in 0 W/m2
00:59 38.4 °F 34.8 °F 29.78 in SW 1.4 mph 15 mph 86.5% 0.00 in 0 W/m2
01:04 38.5 °F 34.7 °F 29.78 in SW 0.9 mph 15 mph 86% 0.00 in 0 W/m2
01:09 38.5 °F 34.7 °F 29.78 in WSW 0.5 mph 7 mph 86% 0.00 in 0 W/m2
01:14 38.5 °F 34.7 °F 29.78 in SW 0.9 mph 7 mph 86% 0.00 in 0 W/m2
01:19 38.4 °F 34.6 °F 29.79 in SW 1.3 mph 7 mph 86% 0.00 in 0 W/m2
01:24 38.4 °F 34.6 °F 29.79 in WSW 2 mph 7 mph 86% 0.00 in 0 W/m2
01:29 38.4 °F 34.3 °F 29.79 in WSW 1.2 mph 7 mph 85% 0.00 in 0 W/m2
01:34 38.4 °F 34.3 °F 29.79 in WSW 0.9 mph 7 mph 85% 0.00 in 0 W/m2
01:39 38.4 °F 34.3 °F 29.79 in WSW 0.8 mph 7 mph 85% 0.00 in 0 W/m2
01:44 38.3 °F 34.2 °F 29.79 in WSW 0.1 mph 7 mph 85% 0.00 in 0 W/m2
01:49 38.3 °F 34.2 °F 29.79 in West 1.4 mph 10 mph 85% 0.00 in 0 W/m2
01:54 38.3 °F 34.2 °F 29.79 in West 0.2 mph 10 mph 85% 0.00 in 0 W/m2
01:59 38.2 °F 34.1 °F 29.79 in West 0.4 mph 10 mph 85% 0.00 in 0 W/m2
02:04 38.2 °F 34.1 °F 29.80 in West 0.1 mph 10 mph 85% 0.00 in 0 W/m2
02:09 38.1 °F 34 °F 29.80 in West 0.2 mph 4 mph 85% 0.00 in 0 W/m2
02:14 38 °F 33.9 °F 29.80 in West 0.2 mph 4 mph 85% 0.00 in 0 W/m2
02:19 38 °F 33.9 °F 29.81 in West 0.4 mph 5 mph 85% 0.00 in 0 W/m2
02:24 37.9 °F 33.8 °F 29.81 in West 1.1 mph 7 mph 85% 0.00 in 0 W/m2
02:29 38 °F 33.9 °F 29.81 in West 0.8 mph 7 mph 85% 0.00 in 0 W/m2
02:34 38 °F 33.9 °F 29.81 in WNW 0.5 mph 7 mph 85% 0.00 in 0 W/m2
02:39 38 °F 33.9 °F 29.80 in WSW 1.4 mph 10 mph 85% 0.00 in 0 W/m2
02:44 38.1 °F 34 °F 29.80 in WSW 1.5 mph 10 mph 85% 0.00 in 0 W/m2
02:49 38.2 °F 34 °F 29.80 in WSW 2.2 mph 10 mph 84.9% 0.00 in 0 W/m2
02:54 38.2 °F 33.9 °F 29.80 in WSW 2.7 mph 10 mph 84.2% 0.00 in 0 W/m2
02:59 38.3 °F 33.9 °F 29.80 in West 1.8 mph 10 mph 84% 0.00 in 0 W/m2
03:04 38.3 °F 33.9 °F 29.81 in WSW 2.4 mph 10 mph 84% 0.00 in 0 W/m2
03:09 38.3 °F 33.9 °F 29.81 in West 1 mph 10 mph 84% 0.00 in 0 W/m2
03:14 38.3 °F 33.9 °F 29.81 in West 1.2 mph 10 mph 84% 0.00 in 0 W/m2
03:19 38.2 °F 33.8 °F 29.81 in WSW 1.6 mph 10 mph 84% 0.00 in 0 W/m2
03:24 38.2 °F 33.8 °F 29.81 in WSW 1.9 mph 13 mph 84% 0.00 in 0 W/m2
03:29 38.2 °F 33.8 °F 29.81 in WSW 1.1 mph 13 mph 84% 0.00 in 0 W/m2
03:34 38.1 °F 33.7 °F 29.81 in WSW 0.6 mph 13 mph 84% 0.00 in 0 W/m2
03:39 38 °F 33.9 °F 29.81 in WSW 0.7 mph 7 mph 84.9% 0.00 in 0 W/m2
03:44 38 °F 33.9 °F 29.81 in WSW 1.2 mph 7 mph 85% 0.00 in 0 W/m2
03:49 37.9 °F 33.8 °F 29.82 in WSW 2.2 mph 8 mph 85% 0.00 in 0 W/m2
03:54 37.9 °F 33.8 °F 29.82 in WSW 0.9 mph 8 mph 85% 0.00 in 0 W/m2
03:59 37.9 °F 33.8 °F 29.82 in WSW 0.4 mph 8 mph 85% 0.00 in 0 W/m2
04:00 37.9 °F 33.8 °F 29.82 in Calm   8 mph 85% 0.00 in 0 W/m2
04:09 37.8 °F 33.7 °F 29.82 in WSW 0.4 mph 3 mph 85% 0.00 in 0 W/m2
04:14 37.8 °F 33.7 °F 29.82 in WSW 1.3 mph 10 mph 85% 0.00 in 0 W/m2
04:19 37.7 °F 33.6 °F 29.82 in WSW 1 mph 10 mph 85% 0.00 in 0 W/m2
04:24 37.7 °F 33.6 °F 29.82 in WSW 1.4 mph 10 mph 85% 0.00 in 0 W/m2
04:29 37.7 °F 33.6 °F 29.82 in WSW 1.1 mph 10 mph 85% 0.00 in 0 W/m2
04:34 37.7 °F 33.6 °F 29.82 in SW 2.6 mph 11 mph 85% 0.00 in 0 W/m2
04:39 37.7 °F 33.9 °F 29.82 in SW 1.2 mph 11 mph 85.9% 0.00 in 0 W/m2
04:44 37.6 °F 33.8 °F 29.82 in WSW 1 mph 11 mph 86% 0.00 in 0 W/m2
04:49 37.6 °F 33.8 °F 29.83 in WSW 0.6 mph 11 mph 86% 0.00 in 0 W/m2
04:54 37.5 °F 33.5 °F 29.83 in WSW 0.4 mph 11 mph 85.3% 0.00 in 0 W/m2
04:59 37.5 °F 33.5 °F 29.83 in WSW 0.1 mph 11 mph 85.4% 0.00 in 0 W/m2
05:04 37.4 °F 33.6 °F 29.83 in WSW 0.4 mph 11 mph 86% 0.00 in 0 W/m2
05:09 37.3 °F 33.4 °F 29.83 in WSW 0.4 mph 8 mph 85.8% 0.00 in 0 W/m2
05:14 37.2 °F 33.4 °F 29.83 in WSW 0.3 mph 8 mph 86% 0.00 in 0 W/m2
05:19 37.1 °F 33.3 °F 29.83 in WSW 1.1 mph 8 mph 86% 0.00 in 0 W/m2
05:24 37.1 °F 33.3 °F 29.83 in WSW 0.9 mph 8 mph 86% 0.00 in 0 W/m2
05:29 37 °F 33.2 °F 29.83 in WSW 0.5 mph 8 mph 86% 0.00 in 0 W/m2
05:34 37 °F 33.3 °F 29.83 in WSW 0.6 mph 8 mph 86.3% 0.00 in 0 W/m2
05:39 36.9 °F 33.4 °F 29.83 in WSW 0.2 mph 5 mph 87% 0.00 in 0 W/m2
05:44 36.8 °F 33.3 °F 29.84 in WSW 0.1 mph 5 mph 87% 0.00 in 0 W/m2
05:49 36.8 °F 33.3 °F 29.84 in Calm   5 mph 87% 0.00 in 0 W/m2
05:54 36.8 °F 33.3 °F 29.84 in Calm   5 mph 87% 0.00 in 0 W/m2
05:59 36.7 °F 33.2 °F 29.84 in Calm   5 mph 87% 0.00 in 0 W/m2
06:04 36.7 °F 33.3 °F 29.84 in WSW 0.2 mph 5 mph 87.5% 0.00 in 0 W/m2
06:09 36.7 °F 33.5 °F 29.84 in WSW 0.8 mph 6 mph 88% 0.00 in 0 W/m2
06:14 36.6 °F 33.4 °F 29.84 in SW 0.4 mph 6 mph 88% 0.00 in 0 W/m2
06:19 36.6 °F 33.4 °F 29.84 in SW 0.6 mph 6 mph 88% 0.00 in 0 W/m2
06:24 36.7 °F 33.5 °F 29.84 in Calm   6 mph 88% 0.00 in 0 W/m2
06:29 36.7 °F 33.5 °F 29.84 in SW 0.1 mph 6 mph 88% 0.00 in 0 W/m2
06:34 36.7 °F 33.5 °F 29.85 in SW 0.3 mph 6 mph 88% 0.00 in 0 W/m2
06:39 36.7 °F 33.5 °F 29.85 in WSW 0.1 mph 3 mph 88% 0.00 in 0 W/m2
06:44 36.7 °F 33.5 °F 29.85 in WSW 0.2 mph 3 mph 88% 0.00 in 5 W/m2
06:49 36.7 °F 33.5 °F 29.85 in WSW 0.8 mph 10 mph 88% 0.00 in 7 W/m2
06:54 36.8 °F 33.6 °F 29.85 in West 0.1 mph 10 mph 88% 0.00 in 11 W/m2
06:59 36.8 °F 33.6 °F 29.85 in West 0.4 mph 10 mph 88% 0.00 in 12 W/m2
07:04 36.9 °F 33.7 °F 29.86 in West 0.3 mph 10 mph 88% 0.00 in 16 W/m2
07:09 36.9 °F 33.7 °F 29.86 in West 2.1 mph 10 mph 88% 0.00 in 21 W/m2
07:14 37.1 °F 33.9 °F 29.85 in West 0.6 mph 10 mph 88% 0.00 in 49 W/m2
07:19 37.4 °F 34.2 °F 29.86 in West 0.4 mph 10 mph 88% 0.00 in 33 W/m2
07:24 37.7 °F 34.5 °F 29.86 in WSW 1.7 mph 10 mph 87.9% 0.00 in 23 W/m2
07:29 38 °F 34.7 °F 29.87 in West 0.8 mph 10 mph 87.6% 0.00 in 33 W/m2
07:34 38.3 °F 34.8 °F 29.86 in West 1.3 mph 10 mph 86.9% 0.00 in 39 W/m2
07:39 38.5 °F 34.7 °F 29.87 in WSW 0.9 mph 6 mph 86% 0.00 in 44 W/m2
07:44 38.8 °F 35 °F 29.88 in WSW 0.5 mph 6 mph 86% 0.00 in 49 W/m2
07:49 39.1 °F 35.2 °F 29.88 in West 0.2 mph 6 mph 86% 0.00 in 47 W/m2
07:54 39.4 °F 35.5 °F 29.88 in WSW 0.5 mph 6 mph 85.9% 0.00 in 113 W/m2
07:59 39.8 °F 35.7 °F 29.88 in WSW 0.6 mph 6 mph 85.1% 0.00 in 186 W/m2
08:00 40.1 °F 36 °F 29.87 in Calm   6 mph 85% 0.00 in 162 W/m2
08:09 41.4 °F 36.9 °F 29.88 in WSW 0.1 mph 2 mph 84% 0.00 in 197 W/m2
08:14 42.3 °F 37.6 °F 29.88 in WNW 0.4 mph 5 mph 83.1% 0.00 in 253 W/m2
08:19 43.3 °F 37.8 °F 29.88 in WNW 0.5 mph 5 mph 80.8% 0.00 in 272 W/m2
08:24 44.2 °F 38.2 °F 29.88 in Calm   5 mph 79.2% 0.00 in 287 W/m2
08:29 45.2 °F 38.4 °F 29.88 in WNW 1.1 mph 5 mph 76.9% 0.00 in 299 W/m2
08:34 46.1 °F 38.4 °F 29.88 in West 0.4 mph 5 mph 74.4% 0.00 in 309 W/m2
08:39 46.8 °F 38.5 °F 29.88 in WSW 1.6 mph 9 mph 72.8% 0.00 in 323 W/m2
08:44 47.2 °F 38.3 °F 29.88 in WSW 1.4 mph 9 mph 71% 0.00 in 332 W/m2
08:49 47.6 °F 38.4 °F 29.88 in West 0.4 mph 9 mph 70.2% 0.00 in 341 W/m2
08:54 48 °F 38.7 °F 29.88 in WNW 1 mph 9 mph 70.1% 0.00 in 348 W/m2
08:59 48.2 °F 38.7 °F 29.88 in WSW 0.8 mph 9 mph 69.5% 0.00 in 367 W/m2
09:04 48.2 °F 38.5 °F 29.88 in WSW 0.9 mph 9 mph 68.8% 0.00 in 367 W/m2
09:09 48.1 °F 38.4 °F 29.89 in WSW 0.5 mph 7 mph 68.9% 0.00 in 139 W/m2
09:14 47.8 °F 38.1 °F 29.89 in WSW 0.8 mph 7 mph 68.7% 0.00 in 308 W/m2
09:19 47.6 °F 38.2 °F 29.88 in West 1.1 mph 8 mph 69.7% 0.00 in 367 W/m2
09:24 47.6 °F 38.3 °F 29.89 in WSW 2.2 mph 9 mph 70% 0.00 in 288 W/m2
09:29 47.7 °F 38 °F 29.89 in WSW 1.3 mph 9 mph 68.9% 0.00 in 267 W/m2
09:34 47.8 °F 38.4 °F 29.89 in West 0.7 mph 9 mph 69.8% 0.00 in 227 W/m2
09:39 48 °F 38.6 °F 29.89 in West 0.3 mph 4 mph 69.9% 0.00 in 127 W/m2
09:44 48.1 °F 38.6 °F 29.89 in West 1.6 mph 5 mph 69.5% 0.00 in 359 W/m2
09:49 48.2 °F 38.3 °F 29.89 in West 0.2 mph 5 mph 68.5% 0.00 in 427 W/m2
09:54 48.5 °F 38.6 °F 29.89 in West 0.7 mph 5 mph 68.3% 0.00 in 320 W/m2
09:59 49 °F 39.1 °F 29.89 in West 0.5 mph 5 mph 68.5% 0.00 in 383 W/m2
10:04 49.5 °F 39.4 °F 29.89 in West 0.3 mph 5 mph 68% 0.00 in 439 W/m2
10:09 50.1 °F 39.1 °F 29.89 in West 1 mph 7 mph 65.9% 0.00 in 487 W/m2
10:14 50.7 °F 39.5 °F 29.89 in West 0.4 mph 7 mph 65.3% 0.00 in 429 W/m2
10:19 51.1 °F 38.8 °F 29.88 in West 0.9 mph 7 mph 62.6% 0.00 in 399 W/m2
10:24 51.3 °F 38.3 °F 29.89 in West 0.7 mph 7 mph 61.1% 0.00 in 292 W/m2
10:29 51.3 °F 38.8 °F 29.88 in West 0.1 mph 7 mph 62.2% 0.00 in 257 W/m2
10:34 51.3 °F 38.9 °F 29.88 in Calm   7 mph 62.5% 0.00 in 316 W/m2
10:39 51.3 °F 38.8 °F 29.88 in West 0.3 mph 4 mph 62% 0.00 in 283 W/m2
10:44 51.5 °F 39.5 °F 29.88 in Calm   4 mph 63.2% 0.00 in 285 W/m2
10:49 51.9 °F 39.4 °F 29.88 in West 0.7 mph 4 mph 62.2% 0.00 in 218 W/m2
10:54 52.1 °F 39 °F 29.88 in West 1.1 mph 6 mph 60.8% 0.00 in 206 W/m2
10:59 52.1 °F 38 °F 29.87 in West 1.1 mph 7 mph 58.6% 0.00 in 207 W/m2
11:04 51.9 °F 37.7 °F 29.87 in West 1.2 mph 7 mph 58.3% 0.00 in 299 W/m2
11:09 51.8 °F 37.9 °F 29.87 in WNW 1.9 mph 11 mph 59% 0.00 in 299 W/m2
11:14 51.6 °F 37.7 °F 29.87 in West 1.7 mph 11 mph 59% 0.00 in 193 W/m2
11:19 51.3 °F 37.5 °F 29.87 in West 0.9 mph 11 mph 59.1% 0.00 in 221 W/m2
11:24 51.2 °F 38.1 °F 29.86 in West 1.1 mph 11 mph 60.6% 0.00 in 221 W/m2
11:29 51.3 °F 38.2 °F 29.86 in West 0.9 mph 11 mph 60.6% 0.00 in 190 W/m2
11:34 51.5 °F 37.8 °F 29.86 in West 2.9 mph 11 mph 59.4% 0.00 in 193 W/m2
11:39 51.4 °F 37.2 °F 29.86 in WSW 1.4 mph 8 mph 58.2% 0.00 in 207 W/m2
11:44 51.4 °F 37.3 °F 29.86 in WSW 1.8 mph 9 mph 58.3% 0.00 in 255 W/m2
11:49 51.5 °F 37.5 °F 29.86 in West 1.2 mph 9 mph 58.7% 0.00 in 229 W/m2
11:54 51.6 °F 37.1 °F 29.86 in West 0.6 mph 9 mph 57.5% 0.00 in 213 W/m2
11:55 51.7 °F 37.4 °F 29.85 in Calm   9 mph 58% 0.00 in 209 W/m2
12:09 51.8 °F 37.6 °F 29.85 in WSW 0.4 mph 4 mph 58.2% 0.00 in 186 W/m2
12:14 51.8 °F 37.2 °F 29.85 in WSW 0.2 mph 4 mph 57.4% 0.00 in 195 W/m2
12:19 51.8 °F 37.3 °F 29.85 in WSW 1.3 mph 6 mph 57.6% 0.00 in 243 W/m2
12:24 51.8 °F 37.2 °F 29.85 in WSW 0.7 mph 6 mph 57.3% 0.00 in 278 W/m2
12:29 52 °F 37.2 °F 29.85 in WSW 0.4 mph 6 mph 57% 0.00 in 362 W/m2
12:34 52.2 °F 36.7 °F 29.85 in WSW 0.2 mph 6 mph 55.4% 0.00 in 278 W/m2
12:39 52.3 °F 36.6 °F 29.84 in SW 1 mph 6 mph 54.8% 0.00 in 193 W/m2
12:44 52.3 °F 37.1 °F 29.84 in SW 0.5 mph 6 mph 55.9% 0.00 in 183 W/m2
12:49 52.2 °F 36.4 °F 29.84 in WSW 0.5 mph 6 mph 54.7% 0.00 in 202 W/m2
12:54 52.1 °F 37 °F 29.84 in West 0.9 mph 6 mph 56.2% 0.00 in 206 W/m2
12:59 52.2 °F 36.7 °F 29.83 in WNW 1.2 mph 6 mph 55.5% 0.00 in 197 W/m2
13:04 52.2 °F 36.5 °F 29.83 in WNW 0.1 mph 6 mph 55.1% 0.00 in 178 W/m2
13:09 52.2 °F 36.5 °F 29.83 in Calm   2 mph 55.1% 0.00 in 151 W/m2
13:14 52 °F 36 °F 29.83 in WNW 0.1 mph 2 mph 54.2% 0.00 in 139 W/m2
13:19 51.8 °F 35.7 °F 29.82 in Calm   2 mph 54% 0.00 in 134 W/m2
13:24 51.6 °F 36.1 °F 29.82 in Calm   2 mph 55.4% 0.00 in 134 W/m2
13:29 51.5 °F 36.3 °F 29.82 in WNW 0.1 mph 3 mph 56% 0.00 in 128 W/m2
13:34 51.4 °F 36.3 °F 29.82 in Calm   3 mph 56% 0.00 in 128 W/m2
13:39 51.4 °F 36 °F 29.83 in Calm   1 mph 55.4% 0.00 in 141 W/m2
13:44 51.4 °F 36.5 °F 29.83 in Calm   1 mph 56.5% 0.00 in 144 W/m2
13:49 51.4 °F 35.5 °F 29.83 in WNW 0.2 mph 3 mph 54.3% 0.00 in 144 W/m2
13:54 51.4 °F 35.1 °F 29.83 in Calm   3 mph 53.4% 0.00 in 128 W/m2
13:59 51.4 °F 36.1 °F 29.83 in Calm   3 mph 55.7% 0.00 in 123 W/m2
14:04 51.5 °F 36.2 °F 29.82 in Calm   3 mph 55.7% 0.00 in 109 W/m2
14:09 51.5 °F 36.6 °F 29.82 in WNW 0.1 mph 1 mph 56.7% 0.00 in 95 W/m2
14:14 51.5 °F 36 °F 29.82 in WNW 0.3 mph 3 mph 55.3% 0.00 in 102 W/m2
14:19 51.3 °F 35.6 °F 29.82 in WNW 0.1 mph 3 mph 54.7% 0.00 in 102 W/m2
14:24 51.2 °F 35.2 °F 29.82 in Calm   3 mph 54.1% 0.00 in 97 W/m2
14:29 51 °F 35.3 °F 29.82 in Calm   3 mph 54.7% 0.00 in 93 W/m2
14:34 50.9 °F 35.8 °F 29.82 in Calm   3 mph 55.9% 0.00 in 84 W/m2
14:39 50.9 °F 35.9 °F 29.82 in WNW 0.2 mph 4 mph 56.4% 0.00 in 76 W/m2
14:44 50.8 °F 35.4 °F 29.82 in Calm   4 mph 55.5% 0.00 in 62 W/m2
14:49 50.6 °F 35.2 °F 29.82 in West 0.1 mph 4 mph 55.4% 0.00 in 54 W/m2
14:54 50.5 °F 35.2 °F 29.82 in West 0.4 mph 4 mph 55.5% 0.00 in 51 W/m2
14:59 50.5 °F 35.4 °F 29.82 in Calm   4 mph 56% 0.00 in 53 W/m2
15:04 50.4 °F 35.4 °F 29.82 in Calm   4 mph 56.2% 0.00 in 54 W/m2
15:09 50.3 °F 35.7 °F 29.82 in West 0.3 mph 4 mph 57.2% 0.00 in 54 W/m2
15:14 50.2 °F 36.3 °F 29.81 in West 0.1 mph 4 mph 58.7% 0.00 in 53 W/m2
15:19 50.1 °F 36.4 °F 29.81 in WSW 1.4 mph 5 mph 59.2% 0.00 in 42 W/m2
15:24 50 °F 36.5 °F 29.81 in WSW 0.1 mph 5 mph 59.7% 0.00 in 30 W/m2
15:29 49.9 °F 36.6 °F 29.81 in WSW 0.3 mph 5 mph 60% 0.00 in 26 W/m2
15:34 49.8 °F 36.7 °F 29.82 in WSW 0.4 mph 5 mph 60.4% 0.00 in 23 W/m2
15:39 49.7 °F 37 °F 29.82 in Calm   3 mph 61.3% 0.00 in 23 W/m2
15:44 49.6 °F 36.7 °F 29.82 in SW 0.3 mph 4 mph 61% 0.00 in 26 W/m2
15:49 49.6 °F 37.3 °F 29.82 in SW 0.1 mph 4 mph 62.5% 0.00 in 30 W/m2
15:54 49.6 °F 37.5 °F 29.82 in SW 0.1 mph 4 mph 63% 0.00 in 30 W/m2
15:59 49.5 °F 37.5 °F 29.82 in Calm   4 mph 63.2% 0.00 in 25 W/m2
16:00 49.6 °F 37.5 °F 29.82 in Calm   4 mph 63% 0.00 in 25 W/m2
16:09 49.4 °F 37.1 °F 29.82 in Calm   2 mph 62.3% 0.00 in 18 W/m2
16:14 49.2 °F 36.5 °F 29.82 in SW 0.6 mph 4 mph 61.3% 0.00 in 11 W/m2
16:19 49 °F 35.9 °F 29.81 in SW 0.5 mph 4 mph 60.5% 0.00 in 7 W/m2
16:24 48.7 °F 36.1 °F 29.81 in SW 0.9 mph 6 mph 61.5% 0.00 in 5 W/m2
16:29 48.5 °F 36.4 °F 29.82 in SW 0.2 mph 6 mph 62.6% 0.00 in 0 W/m2
16:34 48.4 °F 36.4 °F 29.82 in SW 0.1 mph 6 mph 63% 0.00 in 0 W/m2
16:39 48.2 °F 36.2 °F 29.82 in Calm   2 mph 63% 0.00 in 0 W/m2
16:44 48 °F 36.3 °F 29.82 in SW 0.2 mph 3 mph 63.7% 0.00 in 0 W/m2
16:49 47.9 °F 36.4 °F 29.82 in SW 0.1 mph 3 mph 64.2% 0.00 in 0 W/m2
16:54 47.9 °F 36.6 °F 29.82 in Calm   3 mph 64.7% 0.00 in 0 W/m2
16:59 47.8 °F 36.8 °F 29.81 in Calm   3 mph 65.5% 0.00 in 0 W/m2
17:04 47.7 °F 36.9 °F 29.81 in SW 0.3 mph 3 mph 66% 0.00 in 0 W/m2
17:09 47.7 °F 36.9 °F 29.81 in Calm   3 mph 66% 0.00 in 0 W/m2
17:14 47.6 °F 36.8 °F 29.81 in Calm   3 mph 66% 0.00 in 0 W/m2
17:19 47.5 °F 37.1 °F 29.81 in Calm   3 mph 66.9% 0.00 in 0 W/m2
17:24 47.4 °F 37 °F 29.80 in SW 0.1 mph 3 mph 67% 0.00 in 0 W/m2
17:29 47.3 °F 37 °F 29.80 in Calm   3 mph 67.2% 0.00 in 0 W/m2
17:34 47.2 °F 37.2 °F 29.81 in SW 0.3 mph 4 mph 68% 0.00 in 0 W/m2
17:39 47.2 °F 37.2 °F 29.80 in SW 0.3 mph 4 mph 68% 0.00 in 0 W/m2
17:44 47.2 °F 37.2 °F 29.80 in SSW 0.5 mph 4 mph 68% 0.00 in 0 W/m2
17:49 47.1 °F 37.1 °F 29.81 in SSW 0.2 mph 4 mph 68% 0.00 in 0 W/m2
17:54 47 °F 37 °F 29.80 in SSW 0.9 mph 5 mph 68% 0.00 in 0 W/m2
17:59 46.9 °F 37.1 °F 29.81 in South 0.8 mph 7 mph 68.5% 0.00 in 0 W/m2
18:04 46.8 °F 37.2 °F 29.81 in South 0.4 mph 7 mph 69.1% 0.00 in 0 W/m2
18:09 46.6 °F 37.4 °F 29.81 in South 0.1 mph 3 mph 70% 0.00 in 0 W/m2
18:14 46.5 °F 37.3 °F 29.82 in South 0.3 mph 3 mph 70.2% 0.00 in 0 W/m2
18:19 46.2 °F 37.4 °F 29.82 in SSW 0.2 mph 3 mph 71% 0.00 in 0 W/m2
18:24 46.1 °F 37.4 °F 29.82 in SSW 0.2 mph 3 mph 71.6% 0.00 in 0 W/m2
18:29 45.9 °F 37.4 °F 29.82 in SSW 0.1 mph 3 mph 72% 0.00 in 0 W/m2
18:34 45.8 °F 37.6 °F 29.82 in SSW 0.1 mph 3 mph 73% 0.00 in 0 W/m2
18:39 45.7 °F 37.5 °F 29.81 in Calm   2 mph 73% 0.00 in 0 W/m2
18:44 45.7 °F 37.6 °F 29.81 in Calm   2 mph 73% 0.00 in 0 W/m2
18:49 45.8 °F 37.8 °F 29.81 in Calm   2 mph 73.3% 0.00 in 0 W/m2
18:54 45.9 °F 38.1 °F 29.80 in Calm   2 mph 74% 0.00 in 0 W/m2
18:59 46 °F 38.1 °F 29.80 in Calm   2 mph 73.8% 0.00 in 0 W/m2
19:04 46 °F 37.8 °F 29.80 in Calm   2 mph 73% 0.00 in 0 W/m2
19:09 46 °F 38.2 °F 29.80 in Calm     74% 0.00 in 0 W/m2
19:14 46 °F 38.2 °F 29.80 in Calm     74% 0.00 in 0 W/m2
19:19 46 °F 38.2 °F 29.80 in Calm     74% 0.00 in 0 W/m2
19:24 46 °F 38.1 °F 29.80 in Calm     74% 0.00 in 0 W/m2
19:29 45.9 °F 38.1 °F 29.79 in Calm     74% 0.00 in 0 W/m2
19:34 45.8 °F 38 °F 29.79 in Calm     74% 0.00 in 0 W/m2
19:39 45.7 °F 38.2 °F 29.80 in Calm     74.9% 0.00 in 0 W/m2
19:44 45.6 °F 38.2 °F 29.79 in Calm     75% 0.00 in 0 W/m2
19:49 45.6 °F 38.1 °F 29.79 in Calm     75% 0.00 in 0 W/m2
19:54 45.5 °F 38.1 °F 29.79 in Calm     75% 0.00 in 0 W/m2
19:59 45.4 °F 38.1 °F 29.79 in Calm     75.3% 0.00 in 0 W/m2
20:00 45.4 °F 38 °F 29.79 in Calm     75% 0.00 in 0 W/m2
20:09 45.3 °F 38.2 °F 29.79 in Calm     76% 0.00 in 0 W/m2
20:14 45.2 °F 38.1 °F 29.78 in Calm     76% 0.00 in 0 W/m2
20:19 45.2 °F 38.1 °F 29.79 in Calm     76% 0.00 in 0 W/m2
20:24 45.1 °F 38 °F 29.79 in Calm     76% 0.00 in 0 W/m2
20:29 45.1 °F 38.3 °F 29.79 in Calm     76.8% 0.00 in 0 W/m2
20:34 45 °F 38.2 °F 29.79 in Calm     77% 0.00 in 0 W/m2
20:39 44.9 °F 38.1 °F 29.79 in Calm     77% 0.00 in 0 W/m2
20:44 44.8 °F 38 °F 29.79 in Calm     77% 0.00 in 0 W/m2
20:49 44.7 °F 38.1 °F 29.79 in Calm     77.4% 0.00 in 0 W/m2
20:54 44.6 °F 38.1 °F 29.79 in Calm     77.8% 0.00 in 0 W/m2
20:59 44.5 °F 38.1 °F 29.78 in Calm     78% 0.00 in 0 W/m2
21:04 44.5 °F 38 °F 29.78 in Calm     78% 0.00 in 0 W/m2
21:09 44.4 °F 38.1 °F 29.79 in Calm     78.4% 0.00 in 0 W/m2
21:14 44.4 °F 38.2 °F 29.78 in Calm     78.8% 0.00 in 0 W/m2
21:19 44.4 °F 38.3 °F 29.78 in Calm     79% 0.00 in 0 W/m2
21:24 44.4 °F 38.5 °F 29.78 in Calm     79.3% 0.00 in 0 W/m2
21:29 44.5 °F 38.7 °F 29.78 in Calm     80% 0.00 in 0 W/m2
21:34 44.5 °F 38.4 °F 29.78 in Calm     79% 0.00 in 0 W/m2
21:39 44.5 °F 38.4 °F 29.77 in Calm     79% 0.00 in 0 W/m2
21:44 44.5 °F 38.4 °F 29.77 in Calm     79% 0.00 in 0 W/m2
21:49 44.5 °F 38.4 °F 29.77 in Calm     79% 0.00 in 0 W/m2
21:54 44.5 °F 38.4 °F 29.77 in Calm     79% 0.00 in 0 W/m2
21:59 44.6 °F 38.1 °F 29.77 in Calm     77.8% 0.00 in 0 W/m2
22:04 44.6 °F 37.9 °F 29.77 in Calm     77.1% 0.00 in 0 W/m2
22:09 44.7 °F 38.3 °F 29.76 in Calm     78% 0.00 in 0 W/m2
22:14 44.7 °F 38.2 °F 29.76 in Calm     77.7% 0.00 in 0 W/m2
22:19 44.7 °F 37.9 °F 29.76 in Calm     77% 0.00 in 0 W/m2
22:24 44.7 °F 37.9 °F 29.76 in Calm     77% 0.00 in 0 W/m2
22:29 44.7 °F 37.9 °F 29.76 in Calm     77% 0.00 in 0 W/m2
22:34 44.6 °F 38.1 °F 29.76 in Calm     77.7% 0.00 in 0 W/m2
22:39 44.6 °F 38.2 °F 29.76 in Calm   1 mph 78% 0.00 in 0 W/m2
22:44 44.5 °F 37.7 °F 29.76 in Calm   1 mph 76.9% 0.00 in 0 W/m2
22:49 44.4 °F 37.4 °F 29.76 in Calm   1 mph 76% 0.00 in 0 W/m2
22:54 44.4 °F 37.3 °F 29.76 in SSW 0.3 mph 4 mph 76% 0.00 in 0 W/m2
22:59 44.4 °F 37.3 °F 29.76 in SW 0.9 mph 5 mph 76% 0.00 in 0 W/m2
23:00 44.4 °F 37.3 °F 29.76 in Calm   5 mph 76% 0.00 in 0 W/m2
23:09 44.5 °F 37.7 °F 29.76 in SW 0.6 mph 5 mph 77% 0.00 in 0 W/m2
23:14 44.4 °F 37.7 °F 29.76 in SW 0.2 mph 5 mph 77% 0.00 in 0 W/m2
23:19 44.4 °F 38 °F 29.76 in SW 2.2 mph 10 mph 78.1% 0.00 in 0 W/m2
23:24 44.2 °F 38.2 °F 29.76 in SW 3.7 mph 10 mph 79.1% 0.00 in 0 W/m2
23:29 44 °F 38.3 °F 29.76 in SW 2.2 mph 10 mph 80.3% 0.01 in 0 W/m2
23:34 43.8 °F 38.3 °F 29.76 in SW 0.3 mph 10 mph 81% 0.01 in 0 W/m2
23:39 43.6 °F 38.5 °F 29.76 in SW 0.1 mph 3 mph 82.2% 0.02 in 0 W/m2
23:44 43.4 °F 38.7 °F 29.76 in SW 0.1 mph 3 mph 83.3% 0.02 in 0 W/m2
23:49 43.2 °F 38.7 °F 29.76 in SW 0.3 mph 4 mph 84% 0.02 in 0 W/m2
23:53 43 °F 38.8 °F 29.76 in SW 0.7 mph 4 mph 84.7% 0.02 in 0 W/m2
23:59 42.8 °F 38.6 °F 29.76 in SW 1.1 mph 6 mph 85% 0.02 in 0 W/m2
Hartford County Weather
Compliments of Weather Underground - 2 mb